sensor_id;sensor_type;location;lat;lon;timestamp;temperature;humidity
23475;DHT22;11910;52.086;21.066;2023-10-08T00:00:24;12.90;99.90
23475;DHT22;11910;52.086;21.066;2023-10-08T00:03:09;12.80;99.90
23475;DHT22;11910;52.086;21.066;2023-10-08T00:05:38;12.90;99.90
23475;DHT22;11910;52.086;21.066;2023-10-08T00:08:05;12.90;99.90
23475;DHT22;11910;52.086;21.066;2023-10-08T00:10:38;12.90;99.90
23475;DHT22;11910;52.086;21.066;2023-10-08T00:13:07;12.90;99.90
23475;DHT22;11910;52.086;21.066;2023-10-08T00:15:35;12.90;99.90
23475;DHT22;11910;52.086;21.066;2023-10-08T00:18:02;12.90;99.90
23475;DHT22;11910;52.086;21.066;2023-10-08T00:20:34;12.90;99.90
23475;DHT22;11910;52.086;21.066;2023-10-08T00:23:07;12.90;99.90
23475;DHT22;11910;52.086;21.066;2023-10-08T00:25:36;12.90;99.90
23475;DHT22;11910;52.086;21.066;2023-10-08T00:28:07;12.90;99.90
23475;DHT22;11910;52.086;21.066;2023-10-08T00:30:38;12.90;99.90
23475;DHT22;11910;52.086;21.066;2023-10-08T00:33:04;13.00;99.90
23475;DHT22;11910;52.086;21.066;2023-10-08T00:35:30;12.90;99.90
23475;DHT22;11910;52.086;21.066;2023-10-08T00:37:56;12.90;99.90
23475;DHT22;11910;52.086;21.066;2023-10-08T00:40:35;12.90;99.90
23475;DHT22;11910;52.086;21.066;2023-10-08T00:43:02;12.90;99.90
23475;DHT22;11910;52.086;21.066;2023-10-08T00:45:36;12.90;99.90
23475;DHT22;11910;52.086;21.066;2023-10-08T00:48:09;13.00;99.90
23475;DHT22;11910;52.086;21.066;2023-10-08T00:50:36;13.00;99.90
23475;DHT22;11910;52.086;21.066;2023-10-08T00:53:10;13.00;99.90
23475;DHT22;11910;52.086;21.066;2023-10-08T00:55:55;13.00;99.90
23475;DHT22;11910;52.086;21.066;2023-10-08T00:58:30;13.00;99.90
23475;DHT22;11910;52.086;21.066;2023-10-08T01:00:59;13.00;99.90
23475;DHT22;11910;52.086;21.066;2023-10-08T01:03:28;13.00;99.90
23475;DHT22;11910;52.086;21.066;2023-10-08T01:05:55;13.00;99.90
23475;DHT22;11910;52.086;21.066;2023-10-08T01:08:22;13.00;99.90
23475;DHT22;11910;52.086;21.066;2023-10-08T01:11:21;13.00;99.90
23475;DHT22;11910;52.086;21.066;2023-10-08T01:14:07;13.00;99.90
23475;DHT22;11910;52.086;21.066;2023-10-08T01:16:33;12.90;99.90
23475;DHT22;11910;52.086;21.066;2023-10-08T01:19:00;13.00;99.90
23475;DHT22;11910;52.086;21.066;2023-10-08T01:21:29;13.00;99.90
23475;DHT22;11910;52.086;21.066;2023-10-08T01:24:03;13.00;99.90
23475;DHT22;11910;52.086;21.066;2023-10-08T01:26:32;12.90;99.90
23475;DHT22;11910;52.086;21.066;2023-10-08T01:28:59;12.90;99.90
23475;DHT22;11910;52.086;21.066;2023-10-08T01:31:29;12.90;99.90
23475;DHT22;11910;52.086;21.066;2023-10-08T01:33:55;12.90;99.90
23475;DHT22;11910;52.086;21.066;2023-10-08T01:36:23;12.90;99.90
23475;DHT22;11910;52.086;21.066;2023-10-08T01:38:50;12.90;99.90
23475;DHT22;11910;52.086;21.066;2023-10-08T01:41:17;12.90;99.90
23475;DHT22;11910;52.086;21.066;2023-10-08T01:43:48;12.90;99.90
23475;DHT22;11910;52.086;21.066;2023-10-08T01:46:15;12.90;99.90
23475;DHT22;11910;52.086;21.066;2023-10-08T01:48:41;12.90;99.90
23475;DHT22;11910;52.086;21.066;2023-10-08T01:51:10;12.90;99.90
23475;DHT22;11910;52.086;21.066;2023-10-08T01:53:40;12.90;99.90
23475;DHT22;11910;52.086;21.066;2023-10-08T01:56:06;12.90;99.90
23475;DHT22;11910;52.086;21.066;2023-10-08T01:58:32;12.90;99.90
23475;DHT22;11910;52.086;21.066;2023-10-08T02:00:59;12.80;99.90
23475;DHT22;11910;52.086;21.066;2023-10-08T02:03:25;12.80;99.90
23475;DHT22;11910;52.086;21.066;2023-10-08T02:05:53;12.70;99.90
23475;DHT22;11910;52.086;21.066;2023-10-08T02:08:20;12.70;99.90
23475;DHT22;11910;52.086;21.066;2023-10-08T02:10:45;12.70;99.90
23475;DHT22;11910;52.086;21.066;2023-10-08T02:13:14;12.70;99.90
23475;DHT22;11910;52.086;21.066;2023-10-08T02:15:50;12.70;99.90
23475;DHT22;11910;52.086;21.066;2023-10-08T02:18:19;12.60;99.90
23475;DHT22;11910;52.086;21.066;2023-10-08T02:20:45;12.70;99.90
23475;DHT22;11910;52.086;21.066;2023-10-08T02:23:11;12.70;99.90
23475;DHT22;11910;52.086;21.066;2023-10-08T02:25:38;12.70;99.90
23475;DHT22;11910;52.086;21.066;2023-10-08T02:28:08;12.70;99.90
23475;DHT22;11910;52.086;21.066;2023-10-08T02:30:35;12.60;99.90
23475;DHT22;11910;52.086;21.066;2023-10-08T02:33:02;12.60;99.90
23475;DHT22;11910;52.086;21.066;2023-10-08T02:35:28;12.60;99.90
23475;DHT22;11910;52.086;21.066;2023-10-08T02:37:53;12.60;99.90
23475;DHT22;11910;52.086;21.066;2023-10-08T02:40:20;12.60;99.90
23475;DHT22;11910;52.086;21.066;2023-10-08T02:42:56;12.70;99.90
23475;DHT22;11910;52.086;21.066;2023-10-08T02:45:27;12.70;99.90
23475;DHT22;11910;52.086;21.066;2023-10-08T02:47:53;12.70;99.90
23475;DHT22;11910;52.086;21.066;2023-10-08T02:50:20;12.70;99.90
23475;DHT22;11910;52.086;21.066;2023-10-08T02:52:50;12.70;99.90
23475;DHT22;11910;52.086;21.066;2023-10-08T02:55:17;12.70;99.90
23475;DHT22;11910;52.086;21.066;2023-10-08T02:57:54;12.70;99.90
23475;DHT22;11910;52.086;21.066;2023-10-08T03:00:19;12.60;99.90
23475;DHT22;11910;52.086;21.066;2023-10-08T03:02:46;12.60;99.90
23475;DHT22;11910;52.086;21.066;2023-10-08T03:05:12;12.60;99.90
23475;DHT22;11910;52.086;21.066;2023-10-08T03:07:43;12.60;99.90
23475;DHT22;11910;52.086;21.066;2023-10-08T03:10:10;12.60;99.90
23475;DHT22;11910;52.086;21.066;2023-10-08T03:12:47;12.60;99.90
23475;DHT22;11910;52.086;21.066;2023-10-08T03:15:14;12.70;99.90
23475;DHT22;11910;52.086;21.066;2023-10-08T03:17:58;12.70;99.90
23475;DHT22;11910;52.086;21.066;2023-10-08T03:20:34;12.70;99.90
23475;DHT22;11910;52.086;21.066;2023-10-08T03:23:04;12.60;99.90
23475;DHT22;11910;52.086;21.066;2023-10-08T03:25:56;12.70;99.90
23475;DHT22;11910;52.086;21.066;2023-10-08T03:28:43;12.70;99.90
23475;DHT22;11910;52.086;21.066;2023-10-08T03:31:08;12.70;99.90
23475;DHT22;11910;52.086;21.066;2023-10-08T03:33:43;12.60;99.90
23475;DHT22;11910;52.086;21.066;2023-10-08T03:36:14;12.60;99.90
23475;DHT22;11910;52.086;21.066;2023-10-08T03:38:49;12.60;99.90
23475;DHT22;11910;52.086;21.066;2023-10-08T03:41:22;12.60;99.90
23475;DHT22;11910;52.086;21.066;2023-10-08T03:43:52;12.60;99.90
23475;DHT22;11910;52.086;21.066;2023-10-08T03:46:21;12.60;99.90
23475;DHT22;11910;52.086;21.066;2023-10-08T03:48:49;12.60;99.90
23475;DHT22;11910;52.086;21.066;2023-10-08T03:51:17;12.50;99.90
23475;DHT22;11910;52.086;21.066;2023-10-08T03:53:46;12.50;99.90
23475;DHT22;11910;52.086;21.066;2023-10-08T03:56:35;12.60;99.90
23475;DHT22;11910;52.086;21.066;2023-10-08T03:59:02;12.60;99.90
23475;DHT22;11910;52.086;21.066;2023-10-08T04:01:44;12.50;99.90
23475;DHT22;11910;52.086;21.066;2023-10-08T04:04:10;12.50;99.90
23475;DHT22;11910;52.086;21.066;2023-10-08T04:06:40;12.50;99.90
23475;DHT22;11910;52.086;21.066;2023-10-08T04:09:13;12.40;99.90
23475;DHT22;11910;52.086;21.066;2023-10-08T04:11:49;12.40;99.90
23475;DHT22;11910;52.086;21.066;2023-10-08T04:14:23;12.40;99.90
23475;DHT22;11910;52.086;21.066;2023-10-08T04:16:50;12.40;99.90
23475;DHT22;11910;52.086;21.066;2023-10-08T04:19:20;12.40;99.90
23475;DHT22;11910;52.086;21.066;2023-10-08T04:21:46;12.30;99.90
23475;DHT22;11910;52.086;21.066;2023-10-08T04:24:23;12.30;99.90
23475;DHT22;11910;52.086;21.066;2023-10-08T04:27:00;12.30;99.90
23475;DHT22;11910;52.086;21.066;2023-10-08T04:29:31;12.30;99.90
23475;DHT22;11910;52.086;21.066;2023-10-08T04:31:59;12.30;99.90
23475;DHT22;11910;52.086;21.066;2023-10-08T04:34:36;12.20;99.90
23475;DHT22;11910;52.086;21.066;2023-10-08T04:37:02;12.20;99.90
23475;DHT22;11910;52.086;21.066;2023-10-08T04:39:30;12.10;99.90
23475;DHT22;11910;52.086;21.066;2023-10-08T04:41:59;12.10;99.90
23475;DHT22;11910;52.086;21.066;2023-10-08T04:44:32;12.10;99.90
23475;DHT22;11910;52.086;21.066;2023-10-08T04:46:58;12.10;99.90
23475;DHT22;11910;52.086;21.066;2023-10-08T04:49:30;12.00;99.90
23475;DHT22;11910;52.086;21.066;2023-10-08T04:52:05;12.00;99.90
23475;DHT22;11910;52.086;21.066;2023-10-08T04:54:42;12.10;99.90
23475;DHT22;11910;52.086;21.066;2023-10-08T04:57:16;12.00;99.90
23475;DHT22;11910;52.086;21.066;2023-10-08T04:59:42;12.00;99.90
23475;DHT22;11910;52.086;21.066;2023-10-08T05:02:09;12.10;99.90
23475;DHT22;11910;52.086;21.066;2023-10-08T05:04:41;12.10;99.90
23475;DHT22;11910;52.086;21.066;2023-10-08T05:07:25;12.00;99.90
23475;DHT22;11910;52.086;21.066;2023-10-08T05:10:26;12.00;99.90
23475;DHT22;11910;52.086;21.066;2023-10-08T05:12:53;11.90;99.90
23475;DHT22;11910;52.086;21.066;2023-10-08T05:15:31;11.90;99.90
23475;DHT22;11910;52.086;21.066;2023-10-08T05:18:04;12.00;99.90
23475;DHT22;11910;52.086;21.066;2023-10-08T05:20:39;11.90;99.90
23475;DHT22;11910;52.086;21.066;2023-10-08T05:23:14;11.90;99.90
23475;DHT22;11910;52.086;21.066;2023-10-08T05:25:52;11.90;99.90
23475;DHT22;11910;52.086;21.066;2023-10-08T05:28:27;11.80;99.90
23475;DHT22;11910;52.086;21.066;2023-10-08T05:30:55;11.80;99.90
23475;DHT22;11910;52.086;21.066;2023-10-08T05:33:37;11.70;99.90
23475;DHT22;11910;52.086;21.066;2023-10-08T05:36:12;11.70;99.90
23475;DHT22;11910;52.086;21.066;2023-10-08T05:38:43;11.70;99.90
23475;DHT22;11910;52.086;21.066;2023-10-08T05:41:26;11.70;99.90
23475;DHT22;11910;52.086;21.066;2023-10-08T05:44:07;11.60;99.90
23475;DHT22;11910;52.086;21.066;2023-10-08T05:46:45;11.60;99.90
23475;DHT22;11910;52.086;21.066;2023-10-08T05:49:37;11.60;99.90
23475;DHT22;11910;52.086;21.066;2023-10-08T05:52:20;11.60;99.90
23475;DHT22;11910;52.086;21.066;2023-10-08T05:55:03;11.50;99.90
23475;DHT22;11910;52.086;21.066;2023-10-08T05:57:43;11.50;99.90
23475;DHT22;11910;52.086;21.066;2023-10-08T06:00:12;11.50;99.90
23475;DHT22;11910;52.086;21.066;2023-10-08T06:02:42;11.60;99.90
23475;DHT22;11910;52.086;21.066;2023-10-08T06:05:11;11.60;99.90
23475;DHT22;11910;52.086;21.066;2023-10-08T06:07:52;11.50;99.90
23475;DHT22;11910;52.086;21.066;2023-10-08T06:10:22;11.60;99.90
23475;DHT22;11910;52.086;21.066;2023-10-08T06:13:07;11.50;99.90
23475;DHT22;11910;52.086;21.066;2023-10-08T06:15:47;11.60;99.90
23475;DHT22;11910;52.086;21.066;2023-10-08T06:18:25;11.60;99.90
23475;DHT22;11910;52.086;21.066;2023-10-08T06:23:21;11.50;99.90
23475;DHT22;11910;52.086;21.066;2023-10-08T06:25:49;11.60;99.90
23475;DHT22;11910;52.086;21.066;2023-10-08T06:28:33;11.50;99.90
23475;DHT22;11910;52.086;21.066;2023-10-08T06:31:02;11.50;99.90
23475;DHT22;11910;52.086;21.066;2023-10-08T06:33:40;11.60;99.90
23475;DHT22;11910;52.086;21.066;2023-10-08T06:36:06;11.70;99.90
23475;DHT22;11910;52.086;21.066;2023-10-08T06:38:42;11.70;99.90
23475;DHT22;11910;52.086;21.066;2023-10-08T06:41:09;11.60;99.90
23475;DHT22;11910;52.086;21.066;2023-10-08T06:43:48;11.70;99.90
23475;DHT22;11910;52.086;21.066;2023-10-08T06:46:39;11.80;99.90
23475;DHT22;11910;52.086;21.066;2023-10-08T06:49:07;11.80;99.90
23475;DHT22;11910;52.086;21.066;2023-10-08T06:51:38;11.70;99.90
23475;DHT22;11910;52.086;21.066;2023-10-08T06:54:03;11.80;99.90
23475;DHT22;11910;52.086;21.066;2023-10-08T06:56:29;11.90;99.90
23475;DHT22;11910;52.086;21.066;2023-10-08T06:58:56;12.00;99.90
23475;DHT22;11910;52.086;21.066;2023-10-08T07:01:24;12.10;99.90
23475;DHT22;11910;52.086;21.066;2023-10-08T07:03:51;12.10;99.90
23475;DHT22;11910;52.086;21.066;2023-10-08T07:06:18;12.10;99.90
23475;DHT22;11910;52.086;21.066;2023-10-08T07:08:57;12.20;99.90
23475;DHT22;11910;52.086;21.066;2023-10-08T07:11:25;12.20;99.90
23475;DHT22;11910;52.086;21.066;2023-10-08T07:13:54;12.20;99.90
23475;DHT22;11910;52.086;21.066;2023-10-08T07:16:21;12.30;99.90
23475;DHT22;11910;52.086;21.066;2023-10-08T07:18:47;12.40;99.90
23475;DHT22;11910;52.086;21.066;2023-10-08T07:21:19;12.40;99.90
23475;DHT22;11910;52.086;21.066;2023-10-08T07:23:57;12.50;99.90
23475;DHT22;11910;52.086;21.066;2023-10-08T07:26:28;12.60;99.90
23475;DHT22;11910;52.086;21.066;2023-10-08T07:29:04;12.50;99.90
23475;DHT22;11910;52.086;21.066;2023-10-08T07:31:34;12.50;99.90
23475;DHT22;11910;52.086;21.066;2023-10-08T07:34:02;12.60;99.90
23475;DHT22;11910;52.086;21.066;2023-10-08T07:36:47;12.60;99.90
23475;DHT22;11910;52.086;21.066;2023-10-08T07:39:15;12.50;99.90
23475;DHT22;11910;52.086;21.066;2023-10-08T07:42:05;12.50;99.90
23475;DHT22;11910;52.086;21.066;2023-10-08T07:44:31;12.50;99.90
23475;DHT22;11910;52.086;21.066;2023-10-08T07:46:57;12.60;99.90
23475;DHT22;11910;52.086;21.066;2023-10-08T07:49:26;12.60;99.90
23475;DHT22;11910;52.086;21.066;2023-10-08T07:51:56;12.70;99.90
23475;DHT22;11910;52.086;21.066;2023-10-08T07:54:24;12.70;99.90
23475;DHT22;11910;52.086;21.066;2023-10-08T07:56:54;12.80;99.90
23475;DHT22;11910;52.086;21.066;2023-10-08T07:59:41;12.80;99.90
23475;DHT22;11910;52.086;21.066;2023-10-08T08:02:08;12.90;99.90
23475;DHT22;11910;52.086;21.066;2023-10-08T08:04:44;12.90;99.90
23475;DHT22;11910;52.086;21.066;2023-10-08T08:07:11;12.90;99.90
23475;DHT22;11910;52.086;21.066;2023-10-08T08:09:44;12.90;99.90
23475;DHT22;11910;52.086;21.066;2023-10-08T08:12:16;12.90;99.90
23475;DHT22;11910;52.086;21.066;2023-10-08T08:14:42;12.90;99.90
23475;DHT22;11910;52.086;21.066;2023-10-08T08:17:08;13.00;99.90
23475;DHT22;11910;52.086;21.066;2023-10-08T08:19:40;13.20;99.90
23475;DHT22;11910;52.086;21.066;2023-10-08T08:22:06;13.30;99.90
23475;DHT22;11910;52.086;21.066;2023-10-08T08:24:32;13.40;99.90
23475;DHT22;11910;52.086;21.066;2023-10-08T08:27:02;13.40;99.90
23475;DHT22;11910;52.086;21.066;2023-10-08T08:29:36;13.50;99.90
23475;DHT22;11910;52.086;21.066;2023-10-08T08:32:11;13.50;99.90
23475;DHT22;11910;52.086;21.066;2023-10-08T08:34:47;13.50;99.90
23475;DHT22;11910;52.086;21.066;2023-10-08T08:37:16;13.60;99.90
23475;DHT22;11910;52.086;21.066;2023-10-08T08:39:42;13.70;99.90
23475;DHT22;11910;52.086;21.066;2023-10-08T08:42:08;13.60;99.90
23475;DHT22;11910;52.086;21.066;2023-10-08T08:44:38;13.70;99.90
23475;DHT22;11910;52.086;21.066;2023-10-08T08:47:13;13.70;99.90
23475;DHT22;11910;52.086;21.066;2023-10-08T08:49:45;13.80;99.90
23475;DHT22;11910;52.086;21.066;2023-10-08T08:52:11;13.60;99.90
23475;DHT22;11910;52.086;21.066;2023-10-08T08:54:38;13.60;99.90
23475;DHT22;11910;52.086;21.066;2023-10-08T08:57:04;13.60;99.90
23475;DHT22;11910;52.086;21.066;2023-10-08T08:59:32;13.70;99.90
23475;DHT22;11910;52.086;21.066;2023-10-08T09:02:02;13.90;99.90
23475;DHT22;11910;52.086;21.066;2023-10-08T09:04:32;14.00;99.90
23475;DHT22;11910;52.086;21.066;2023-10-08T09:07:01;14.20;99.90
23475;DHT22;11910;52.086;21.066;2023-10-08T09:09:34;14.30;99.90
23475;DHT22;11910;52.086;21.066;2023-10-08T09:12:00;14.40;99.90
23475;DHT22;11910;52.086;21.066;2023-10-08T09:14:27;14.40;99.90
23475;DHT22;11910;52.086;21.066;2023-10-08T09:16:58;14.50;99.90
23475;DHT22;11910;52.086;21.066;2023-10-08T09:19:25;14.50;99.90
23475;DHT22;11910;52.086;21.066;2023-10-08T09:22:08;14.50;99.90
23475;DHT22;11910;52.086;21.066;2023-10-08T09:24:36;14.50;99.40
23475;DHT22;11910;52.086;21.066;2023-10-08T09:27:04;14.70;99.90
23475;DHT22;11910;52.086;21.066;2023-10-08T09:29:29;14.70;99.90
23475;DHT22;11910;52.086;21.066;2023-10-08T09:31:57;15.00;99.90
23475;DHT22;11910;52.086;21.066;2023-10-08T09:34:28;15.20;98.90
23475;DHT22;11910;52.086;21.066;2023-10-08T09:36:56;15.60;99.50
23475;DHT22;11910;52.086;21.066;2023-10-08T09:39:22;16.80;98.40
23475;DHT22;11910;52.086;21.066;2023-10-08T09:41:57;18.40;95.80
23475;DHT22;11910;52.086;21.066;2023-10-08T09:44:24;20.40;93.40
23475;DHT22;11910;52.086;21.066;2023-10-08T09:47:06;21.90;88.70
23475;DHT22;11910;52.086;21.066;2023-10-08T09:49:33;23.00;81.40
23475;DHT22;11910;52.086;21.066;2023-10-08T09:52:01;24.20;74.50
23475;DHT22;11910;52.086;21.066;2023-10-08T09:54:30;25.10;74.60
23475;DHT22;11910;52.086;21.066;2023-10-08T09:57:03;25.30;67.80
23475;DHT22;11910;52.086;21.066;2023-10-08T09:59:29;25.00;64.90
23475;DHT22;11910;52.086;21.066;2023-10-08T10:01:56;25.00;65.50
23475;DHT22;11910;52.086;21.066;2023-10-08T10:04:25;25.30;63.80
23475;DHT22;11910;52.086;21.066;2023-10-08T10:06:55;25.60;62.80
23475;DHT22;11910;52.086;21.066;2023-10-08T10:09:24;26.00;62.70
23475;DHT22;11910;52.086;21.066;2023-10-08T10:11:51;26.30;61.80
23475;DHT22;11910;52.086;21.066;2023-10-08T10:14:21;26.10;58.90
23475;DHT22;11910;52.086;21.066;2023-10-08T10:17:12;26.50;58.70
23475;DHT22;11910;52.086;21.066;2023-10-08T10:19:40;26.40;59.40
23475;DHT22;11910;52.086;21.066;2023-10-08T10:22:14;27.30;60.00
23475;DHT22;11910;52.086;21.066;2023-10-08T10:24:53;27.90;57.90
23475;DHT22;11910;52.086;21.066;2023-10-08T10:27:18;28.00;58.60
23475;DHT22;11910;52.086;21.066;2023-10-08T10:29:44;26.70;57.90
23475;DHT22;11910;52.086;21.066;2023-10-08T10:32:14;27.90;57.10
23475;DHT22;11910;52.086;21.066;2023-10-08T10:34:44;28.00;55.90
23475;DHT22;11910;52.086;21.066;2023-10-08T10:37:13;28.70;55.60
23475;DHT22;11910;52.086;21.066;2023-10-08T10:40:11;28.80;55.90
23475;DHT22;11910;52.086;21.066;2023-10-08T10:42:38;30.00;54.80
23475;DHT22;11910;52.086;21.066;2023-10-08T10:45:15;30.60;54.30
23475;DHT22;11910;52.086;21.066;2023-10-08T10:47:59;30.70;51.20
23475;DHT22;11910;52.086;21.066;2023-10-08T10:50:39;30.60;52.10
23475;DHT22;11910;52.086;21.066;2023-10-08T10:53:17;30.70;52.90
23475;DHT22;11910;52.086;21.066;2023-10-08T10:55:43;30.70;51.30
23475;DHT22;11910;52.086;21.066;2023-10-08T10:58:24;31.10;51.80
23475;DHT22;11910;52.086;21.066;2023-10-08T11:00:50;31.30;51.10
23475;DHT22;11910;52.086;21.066;2023-10-08T11:03:23;31.30;51.20
23475;DHT22;11910;52.086;21.066;2023-10-08T11:05:56;31.30;49.30
23475;DHT22;11910;52.086;21.066;2023-10-08T11:08:25;29.80;49.60
23475;DHT22;11910;52.086;21.066;2023-10-08T11:10:52;25.60;51.60
23475;DHT22;11910;52.086;21.066;2023-10-08T11:13:23;23.10;53.30
23475;DHT22;11910;52.086;21.066;2023-10-08T11:15:54;21.40;55.80
23475;DHT22;11910;52.086;21.066;2023-10-08T11:18:25;20.40;56.40
23475;DHT22;11910;52.086;21.066;2023-10-08T11:20:53;19.50;57.60
23475;DHT22;11910;52.086;21.066;2023-10-08T11:23:37;18.90;59.30
23475;DHT22;11910;52.086;21.066;2023-10-08T11:26:07;18.30;60.60
23475;DHT22;11910;52.086;21.066;2023-10-08T11:28:37;18.10;62.70
23475;DHT22;11910;52.086;21.066;2023-10-08T11:31:27;17.70;62.90
23475;DHT22;11910;52.086;21.066;2023-10-08T11:33:59;17.50;64.50
23475;DHT22;11910;52.086;21.066;2023-10-08T11:36:25;17.40;64.80
23475;DHT22;11910;52.086;21.066;2023-10-08T11:39:09;17.40;64.30
23475;DHT22;11910;52.086;21.066;2023-10-08T11:41:36;17.20;65.60
23475;DHT22;11910;52.086;21.066;2023-10-08T11:44:17;17.10;65.10
23475;DHT22;11910;52.086;21.066;2023-10-08T11:46:45;17.10;63.50
23475;DHT22;11910;52.086;21.066;2023-10-08T11:49:11;17.00;64.30
23475;DHT22;11910;52.086;21.066;2023-10-08T11:51:44;16.80;63.80
23475;DHT22;11910;52.086;21.066;2023-10-08T11:54:09;16.80;64.80
23475;DHT22;11910;52.086;21.066;2023-10-08T11:56:37;16.60;66.40
23475;DHT22;11910;52.086;21.066;2023-10-08T11:59:04;16.60;65.40
23475;DHT22;11910;52.086;21.066;2023-10-08T12:01:37;16.60;66.20
23475;DHT22;11910;52.086;21.066;2023-10-08T12:04:08;16.60;67.60
23475;DHT22;11910;52.086;21.066;2023-10-08T12:06:39;16.80;64.70
23475;DHT22;11910;52.086;21.066;2023-10-08T12:09:04;17.50;66.70
23475;DHT22;11910;52.086;21.066;2023-10-08T12:11:37;20.50;59.60
23475;DHT22;11910;52.086;21.066;2023-10-08T12:14:03;22.60;57.00
23475;DHT22;11910;52.086;21.066;2023-10-08T12:16:29;24.90;53.30
23475;DHT22;11910;52.086;21.066;2023-10-08T12:18:55;25.60;52.50
23475;DHT22;11910;52.086;21.066;2023-10-08T12:21:25;27.40;51.60
23475;DHT22;11910;52.086;21.066;2023-10-08T12:23:51;28.80;47.50
23475;DHT22;11910;52.086;21.066;2023-10-08T12:26:18;28.00;47.40
23475;DHT22;11910;52.086;21.066;2023-10-08T12:28:45;26.90;47.70
23475;DHT22;11910;52.086;21.066;2023-10-08T12:31:14;27.90;46.50
23475;DHT22;11910;52.086;21.066;2023-10-08T12:33:47;29.20;45.30
23475;DHT22;11910;52.086;21.066;2023-10-08T12:36:13;29.70;44.60
23475;DHT22;11910;52.086;21.066;2023-10-08T12:38:42;29.80;44.20
23475;DHT22;11910;52.086;21.066;2023-10-08T12:41:11;30.50;44.10
23475;DHT22;11910;52.086;21.066;2023-10-08T12:43:42;30.50;43.10
23475;DHT22;11910;52.086;21.066;2023-10-08T12:46:08;30.60;42.70
23475;DHT22;11910;52.086;21.066;2023-10-08T12:48:41;31.30;42.30
23475;DHT22;11910;52.086;21.066;2023-10-08T12:51:09;31.90;43.30
23475;DHT22;11910;52.086;21.066;2023-10-08T12:53:37;31.60;42.40
23475;DHT22;11910;52.086;21.066;2023-10-08T12:56:07;31.50;44.10
23475;DHT22;11910;52.086;21.066;2023-10-08T12:58:38;31.10;42.50
23475;DHT22;11910;52.086;21.066;2023-10-08T13:01:13;30.60;42.60
23475;DHT22;11910;52.086;21.066;2023-10-08T13:03:40;29.00;42.50
23475;DHT22;11910;52.086;21.066;2023-10-08T13:06:13;29.50;43.10
23475;DHT22;11910;52.086;21.066;2023-10-08T13:08:57;27.20;43.40
23475;DHT22;11910;52.086;21.066;2023-10-08T13:11:24;26.00;46.40
23475;DHT22;11910;52.086;21.066;2023-10-08T13:16:18;22.70;46.70
23475;DHT22;11910;52.086;21.066;2023-10-08T13:18:43;20.90;49.70
23475;DHT22;11910;52.086;21.066;2023-10-08T13:21:10;19.70;52.70
23475;DHT22;11910;52.086;21.066;2023-10-08T13:23:36;18.90;53.40
23475;DHT22;11910;52.086;21.066;2023-10-08T13:26:02;18.00;53.70
23475;DHT22;11910;52.086;21.066;2023-10-08T13:28:35;17.10;56.60
23475;DHT22;11910;52.086;21.066;2023-10-08T13:31:04;16.70;61.10
23475;DHT22;11910;52.086;21.066;2023-10-08T13:33:39;16.20;62.20
23475;DHT22;11910;52.086;21.066;2023-10-08T13:36:06;16.00;63.70
23475;DHT22;11910;52.086;21.066;2023-10-08T13:38:36;15.80;61.80
23475;DHT22;11910;52.086;21.066;2023-10-08T13:41:03;15.60;61.40
23475;DHT22;11910;52.086;21.066;2023-10-08T13:43:35;15.40;60.80
23475;DHT22;11910;52.086;21.066;2023-10-08T13:46:05;16.20;60.20
23475;DHT22;11910;52.086;21.066;2023-10-08T13:48:36;17.70;59.40
23475;DHT22;11910;52.086;21.066;2023-10-08T13:51:06;20.00;55.70
23475;DHT22;11910;52.086;21.066;2023-10-08T13:53:42;21.40;54.20
23475;DHT22;11910;52.086;21.066;2023-10-08T13:56:10;20.80;54.20
23475;DHT22;11910;52.086;21.066;2023-10-08T13:58:37;19.60;54.90
23475;DHT22;11910;52.086;21.066;2023-10-08T14:01:07;18.20;55.80
23475;DHT22;11910;52.086;21.066;2023-10-08T14:03:50;17.00;56.80
23475;DHT22;11910;52.086;21.066;2023-10-08T14:06:21;16.30;58.40
23475;DHT22;11910;52.086;21.066;2023-10-08T14:08:48;15.70;59.60
23475;DHT22;11910;52.086;21.066;2023-10-08T14:11:23;15.40;59.80
23475;DHT22;11910;52.086;21.066;2023-10-08T14:13:57;15.00;59.70
23475;DHT22;11910;52.086;21.066;2023-10-08T14:16:27;14.70;60.20
23475;DHT22;11910;52.086;21.066;2023-10-08T14:18:55;14.50;60.50
23475;DHT22;11910;52.086;21.066;2023-10-08T14:21:22;14.30;61.30
23475;DHT22;11910;52.086;21.066;2023-10-08T14:23:56;14.20;63.90
23475;DHT22;11910;52.086;21.066;2023-10-08T14:26:22;14.10;65.00
23475;DHT22;11910;52.086;21.066;2023-10-08T14:28:49;14.00;65.10
23475;DHT22;11910;52.086;21.066;2023-10-08T14:33:52;13.90;86.80
23475;DHT22;11910;52.086;21.066;2023-10-08T14:41:54;13.80;88.50
23475;DHT22;11910;52.086;21.066;2023-10-08T14:44:38;13.80;68.20
23475;DHT22;11910;52.086;21.066;2023-10-08T14:47:05;13.80;66.90
23475;DHT22;11910;52.086;21.066;2023-10-08T14:49:31;13.70;65.60
23475;DHT22;11910;52.086;21.066;2023-10-08T14:51:58;13.60;65.80
23475;DHT22;11910;52.086;21.066;2023-10-08T14:54:24;13.60;67.20
23475;DHT22;11910;52.086;21.066;2023-10-08T14:56:50;13.50;66.80
23475;DHT22;11910;52.086;21.066;2023-10-08T14:59:16;13.50;66.30
23475;DHT22;11910;52.086;21.066;2023-10-08T15:01:43;13.50;66.60
23475;DHT22;11910;52.086;21.066;2023-10-08T15:04:10;13.50;65.10
23475;DHT22;11910;52.086;21.066;2023-10-08T15:06:37;13.40;65.10
23475;DHT22;11910;52.086;21.066;2023-10-08T15:09:05;13.40;65.80
23475;DHT22;11910;52.086;21.066;2023-10-08T15:11:33;13.30;65.60
23475;DHT22;11910;52.086;21.066;2023-10-08T15:14:02;13.30;66.80
23475;DHT22;11910;52.086;21.066;2023-10-08T15:16:37;13.20;67.10
23475;DHT22;11910;52.086;21.066;2023-10-08T15:19:04;13.20;67.50
23475;DHT22;11910;52.086;21.066;2023-10-08T15:21:30;13.20;67.00
23475;DHT22;11910;52.086;21.066;2023-10-08T15:23:59;13.20;67.30
23475;DHT22;11910;52.086;21.066;2023-10-08T15:26:34;13.20;66.90
23475;DHT22;11910;52.086;21.066;2023-10-08T15:28:59;13.10;68.40
23475;DHT22;11910;52.086;21.066;2023-10-08T15:31:26;13.10;68.70
23475;DHT22;11910;52.086;21.066;2023-10-08T15:33:52;13.00;67.00
23475;DHT22;11910;52.086;21.066;2023-10-08T15:36:19;13.00;68.40
23475;DHT22;11910;52.086;21.066;2023-10-08T15:38:45;12.90;68.40
23475;DHT22;11910;52.086;21.066;2023-10-08T15:41:11;12.90;67.80
23475;DHT22;11910;52.086;21.066;2023-10-08T15:43:39;12.80;68.50
23475;DHT22;11910;52.086;21.066;2023-10-08T15:46:06;12.80;68.70
23475;DHT22;11910;52.086;21.066;2023-10-08T15:48:32;12.80;69.60
23475;DHT22;11910;52.086;21.066;2023-10-08T15:50:59;12.80;70.50